sensor_id;sensor_type;location;lat;lon;timestamp;P1;durP1;ratioP1;P2;durP2;ratioP2
76640;SDS011;65538;50.798;6.064;2023-02-01T00:01:20;24.30;;;8.40;;
76640;SDS011;65538;50.798;6.064;2023-02-01T00:03:46;22.53;;;10.10;;
76640;SDS011;65538;50.798;6.064;2023-02-01T00:06:11;23.47;;;8.57;;
76640;SDS011;65538;50.798;6.064;2023-02-01T00:08:36;11.17;;;4.53;;
76640;SDS011;65538;50.798;6.064;2023-02-01T00:11:03;34.30;;;12.43;;
76640;SDS011;65538;50.798;6.064;2023-02-01T00:13:29;27.58;;;10.25;;
76640;SDS011;65538;50.798;6.064;2023-02-01T00:15:54;28.70;;;11.40;;
76640;SDS011;65538;50.798;6.064;2023-02-01T00:18:20;22.27;;;9.47;;
76640;SDS011;65538;50.798;6.064;2023-02-01T00:20:45;24.60;;;9.67;;
76640;SDS011;65538;50.798;6.064;2023-02-01T00:23:11;23.88;;;9.27;;
76640;SDS011;65538;50.798;6.064;2023-02-01T00:25:36;26.03;;;10.77;;
76640;SDS011;65538;50.798;6.064;2023-02-01T00:28:01;29.20;;;10.63;;
76640;SDS011;65538;50.798;6.064;2023-02-01T00:30:27;26.33;;;8.93;;
76640;SDS011;65538;50.798;6.064;2023-02-01T00:32:52;29.90;;;9.40;;
76640;SDS011;65538;50.798;6.064;2023-02-01T00:35:17;29.13;;;9.63;;
76640;SDS011;65538;50.798;6.064;2023-02-01T00:37:42;34.83;;;11.67;;
76640;SDS011;65538;50.798;6.064;2023-02-01T00:40:08;29.70;;;12.83;;
76640;SDS011;65538;50.798;6.064;2023-02-01T00:42:33;20.90;;;7.47;;
76640;SDS011;65538;50.798;6.064;2023-02-01T00:44:58;38.17;;;12.50;;
76640;SDS011;65538;50.798;6.064;2023-02-01T00:47:23;27.97;;;12.40;;
76640;SDS011;65538;50.798;6.064;2023-02-01T00:49:48;31.47;;;13.80;;
76640;SDS011;65538;50.798;6.064;2023-02-01T00:52:14;26.73;;;11.55;;
76640;SDS011;65538;50.798;6.064;2023-02-01T00:54:39;35.63;;;10.93;;
76640;SDS011;65538;50.798;6.064;2023-02-01T00:57:04;26.77;;;11.03;;
76640;SDS011;65538;50.798;6.064;2023-02-01T00:59:29;27.67;;;10.77;;
76640;SDS011;65538;50.798;6.064;2023-02-01T01:01:55;30.97;;;9.37;;
76640;SDS011;65538;50.798;6.064;2023-02-01T01:04:20;29.03;;;9.77;;
76640;SDS011;65538;50.798;6.064;2023-02-01T01:06:45;25.02;;;9.73;;
76640;SDS011;65538;50.798;6.064;2023-02-01T01:09:10;24.77;;;9.43;;
76640;SDS011;65538;50.798;6.064;2023-02-01T01:11:37;22.80;;;7.43;;
76640;SDS011;65538;50.798;6.064;2023-02-01T01:14:02;23.45;;;8.93;;
76640;SDS011;65538;50.798;6.064;2023-02-01T01:16:28;27.60;;;8.50;;
76640;SDS011;65538;50.798;6.064;2023-02-01T01:18:54;25.00;;;8.68;;
76640;SDS011;65538;50.798;6.064;2023-02-01T01:21:20;23.65;;;10.00;;
76640;SDS011;65538;50.798;6.064;2023-02-01T01:23:45;20.00;;;7.67;;
76640;SDS011;65538;50.798;6.064;2023-02-01T01:26:15;28.27;;;8.13;;
76640;SDS011;65538;50.798;6.064;2023-02-01T01:28:40;29.42;;;11.65;;
76640;SDS011;65538;50.798;6.064;2023-02-01T01:31:12;21.00;;;7.30;;
76640;SDS011;65538;50.798;6.064;2023-02-01T01:33:38;13.85;;;6.20;;
76640;SDS011;65538;50.798;6.064;2023-02-01T01:36:07;22.05;;;8.48;;
76640;SDS011;65538;50.798;6.064;2023-02-01T01:38:35;22.88;;;7.05;;
76640;SDS011;65538;50.798;6.064;2023-02-01T01:41:00;21.00;;;6.87;;
76640;SDS011;65538;50.798;6.064;2023-02-01T01:43:44;20.02;;;6.18;;
76640;SDS011;65538;50.798;6.064;2023-02-01T01:46:10;22.95;;;6.30;;
76640;SDS011;65538;50.798;6.064;2023-02-01T01:48:40;16.58;;;7.05;;
76640;SDS011;65538;50.798;6.064;2023-02-01T01:51:06;16.47;;;5.73;;
76640;SDS011;65538;50.798;6.064;2023-02-01T01:53:33;22.35;;;6.13;;
76640;SDS011;65538;50.798;6.064;2023-02-01T01:55:59;24.65;;;7.45;;
76640;SDS011;65538;50.798;6.064;2023-02-01T01:58:26;21.40;;;7.05;;
76640;SDS011;65538;50.798;6.064;2023-02-01T02:00:51;18.75;;;6.50;;
76640;SDS011;65538;50.798;6.064;2023-02-01T02:03:18;19.08;;;6.53;;
76640;SDS011;65538;50.798;6.064;2023-02-01T02:05:44;14.27;;;5.43;;
76640;SDS011;65538;50.798;6.064;2023-02-01T02:08:09;23.05;;;6.38;;
76640;SDS011;65538;50.798;6.064;2023-02-01T02:10:36;26.98;;;7.30;;
76640;SDS011;65538;50.798;6.064;2023-02-01T02:13:20;21.88;;;6.28;;
76640;SDS011;65538;50.798;6.064;2023-02-01T02:15:49;21.40;;;7.97;;
76640;SDS011;65538;50.798;6.064;2023-02-01T02:18:20;25.73;;;9.70;;
76640;SDS011;65538;50.798;6.064;2023-02-01T02:20:52;24.30;;;8.05;;
76640;SDS011;65538;50.798;6.064;2023-02-01T02:36:37;14.05;;;4.90;;
76640;SDS011;65538;50.798;6.064;2023-02-01T02:39:08;23.25;;;6.20;;
76640;SDS011;65538;50.798;6.064;2023-02-01T02:41:56;18.92;;;5.13;;
76640;SDS011;65538;50.798;6.064;2023-02-01T02:47:33;18.95;;;7.05;;
76640;SDS011;65538;50.798;6.064;2023-02-01T02:52:52;25.88;;;7.00;;
76640;SDS011;65538;50.798;6.064;2023-02-01T02:55:39;23.75;;;8.73;;
76640;SDS011;65538;50.798;6.064;2023-02-01T02:58:05;16.13;;;6.30;;
76640;SDS011;65538;50.798;6.064;2023-02-01T03:00:50;30.77;;;11.32;;
76640;SDS011;65538;50.798;6.064;2023-02-01T03:03:38;24.73;;;9.40;;
76640;SDS011;65538;50.798;6.064;2023-02-01T03:06:22;29.30;;;9.75;;
76640;SDS011;65538;50.798;6.064;2023-02-01T03:08:48;25.85;;;8.25;;
76640;SDS011;65538;50.798;6.064;2023-02-01T03:11:19;26.02;;;10.27;;
76640;SDS011;65538;50.798;6.064;2023-02-01T03:13:45;19.75;;;7.07;;
76640;SDS011;65538;50.798;6.064;2023-02-01T03:21:06;29.30;;;9.37;;
76640;SDS011;65538;50.798;6.064;2023-02-01T03:23:33;22.80;;;8.82;;
76640;SDS011;65538;50.798;6.064;2023-02-01T03:26:00;29.55;;;9.50;;
76640;SDS011;65538;50.798;6.064;2023-02-01T03:28:26;28.67;;;8.43;;
76640;SDS011;65538;50.798;6.064;2023-02-01T03:30:52;27.80;;;9.35;;
76640;SDS011;65538;50.798;6.064;2023-02-01T03:33:19;32.45;;;10.25;;
76640;SDS011;65538;50.798;6.064;2023-02-01T03:35:50;24.02;;;7.22;;
76640;SDS011;65538;50.798;6.064;2023-02-01T03:38:21;26.88;;;7.85;;
76640;SDS011;65538;50.798;6.064;2023-02-01T03:40:51;17.02;;;5.90;;
76640;SDS011;65538;50.798;6.064;2023-02-01T03:43:16;21.58;;;7.32;;
76640;SDS011;65538;50.798;6.064;2023-02-01T03:45:43;25.23;;;7.22;;
76640;SDS011;65538;50.798;6.064;2023-02-01T03:48:11;16.58;;;5.30;;
76640;SDS011;65538;50.798;6.064;2023-02-01T03:50:38;19.50;;;6.28;;
76640;SDS011;65538;50.798;6.064;2023-02-01T03:53:08;25.23;;;6.85;;
76640;SDS011;65538;50.798;6.064;2023-02-01T03:55:35;17.42;;;6.38;;
76640;SDS011;65538;50.798;6.064;2023-02-01T03:58:06;20.92;;;5.18;;
76640;SDS011;65538;50.798;6.064;2023-02-01T04:00:32;19.23;;;5.22;;
76640;SDS011;65538;50.798;6.064;2023-02-01T04:02:57;18.47;;;5.17;;
76640;SDS011;65538;50.798;6.064;2023-02-01T04:05:22;15.10;;;4.50;;
76640;SDS011;65538;50.798;6.064;2023-02-01T04:07:47;16.80;;;5.43;;
76640;SDS011;65538;50.798;6.064;2023-02-01T04:10:12;15.87;;;4.23;;
76640;SDS011;65538;50.798;6.064;2023-02-01T04:12:38;18.57;;;3.93;;
76640;SDS011;65538;50.798;6.064;2023-02-01T04:15:03;15.07;;;4.50;;
76640;SDS011;65538;50.798;6.064;2023-02-01T04:17:28;25.95;;;5.32;;
76640;SDS011;65538;50.798;6.064;2023-02-01T04:19:54;16.27;;;3.50;;
76640;SDS011;65538;50.798;6.064;2023-02-01T04:22:19;10.40;;;3.57;;
76640;SDS011;65538;50.798;6.064;2023-02-01T04:24:44;20.03;;;5.27;;
76640;SDS011;65538;50.798;6.064;2023-02-01T04:27:09;14.50;;;3.50;;
76640;SDS011;65538;50.798;6.064;2023-02-01T04:29:34;20.47;;;4.03;;
76640;SDS011;65538;50.798;6.064;2023-02-01T04:32:00;22.30;;;4.40;;
76640;SDS011;65538;50.798;6.064;2023-02-01T04:34:25;18.33;;;3.43;;
76640;SDS011;65538;50.798;6.064;2023-02-01T04:36:51;14.57;;;3.17;;
76640;SDS011;65538;50.798;6.064;2023-02-01T04:39:16;13.10;;;2.70;;
76640;SDS011;65538;50.798;6.064;2023-02-01T04:41:41;12.43;;;3.37;;
76640;SDS011;65538;50.798;6.064;2023-02-01T04:44:08;19.63;;;3.30;;
76640;SDS011;65538;50.798;6.064;2023-02-01T04:46:38;14.65;;;3.10;;
76640;SDS011;65538;50.798;6.064;2023-02-01T04:49:03;18.30;;;4.10;;
76640;SDS011;65538;50.798;6.064;2023-02-01T04:51:28;17.23;;;2.93;;
76640;SDS011;65538;50.798;6.064;2023-02-01T04:53:54;13.68;;;2.65;;
76640;SDS011;65538;50.798;6.064;2023-02-01T04:56:20;11.13;;;2.65;;
76640;SDS011;65538;50.798;6.064;2023-02-01T04:58:45;15.43;;;3.20;;
76640;SDS011;65538;50.798;6.064;2023-02-01T05:01:11;17.93;;;2.70;;
76640;SDS011;65538;50.798;6.064;2023-02-01T05:03:36;15.97;;;2.37;;
76640;SDS011;65538;50.798;6.064;2023-02-01T05:06:01;23.63;;;3.73;;
76640;SDS011;65538;50.798;6.064;2023-02-01T05:08:28;13.10;;;3.33;;
76640;SDS011;65538;50.798;6.064;2023-02-01T05:10:54;8.00;;;2.22;;
76640;SDS011;65538;50.798;6.064;2023-02-01T05:13:19;10.90;;;2.25;;
76640;SDS011;65538;50.798;6.064;2023-02-01T05:16:03;14.77;;;2.55;;
76640;SDS011;65538;50.798;6.064;2023-02-01T05:18:29;14.80;;;3.47;;
76640;SDS011;65538;50.798;6.064;2023-02-01T05:20:54;12.00;;;3.07;;
76640;SDS011;65538;50.798;6.064;2023-02-01T05:23:19;26.83;;;4.80;;
76640;SDS011;65538;50.798;6.064;2023-02-01T05:25:44;15.03;;;2.60;;
76640;SDS011;65538;50.798;6.064;2023-02-01T05:28:10;19.70;;;3.37;;
76640;SDS011;65538;50.798;6.064;2023-02-01T05:30:35;23.17;;;5.60;;
76640;SDS011;65538;50.798;6.064;2023-02-01T05:33:01;17.40;;;3.90;;
76640;SDS011;65538;50.798;6.064;2023-02-01T05:35:26;9.23;;;2.80;;
76640;SDS011;65538;50.798;6.064;2023-02-01T05:37:51;13.57;;;2.87;;
76640;SDS011;65538;50.798;6.064;2023-02-01T05:40:16;18.47;;;2.73;;
76640;SDS011;65538;50.798;6.064;2023-02-01T05:42:42;21.67;;;4.47;;
76640;SDS011;65538;50.798;6.064;2023-02-01T05:45:07;15.03;;;2.40;;
76640;SDS011;65538;50.798;6.064;2023-02-01T05:47:33;17.80;;;4.15;;
76640;SDS011;65538;50.798;6.064;2023-02-01T05:49:58;19.63;;;3.93;;
76640;SDS011;65538;50.798;6.064;2023-02-01T05:52:23;20.00;;;4.13;;
76640;SDS011;65538;50.798;6.064;2023-02-01T05:54:48;21.53;;;3.13;;
76640;SDS011;65538;50.798;6.064;2023-02-01T05:57:13;14.90;;;2.70;;
76640;SDS011;65538;50.798;6.064;2023-02-01T05:59:39;17.27;;;3.60;;
76640;SDS011;65538;50.798;6.064;2023-02-01T06:02:09;17.70;;;3.58;;
76640;SDS011;65538;50.798;6.064;2023-02-01T06:04:35;17.52;;;3.75;;
76640;SDS011;65538;50.798;6.064;2023-02-01T06:07:00;21.70;;;3.37;;
76640;SDS011;65538;50.798;6.064;2023-02-01T06:09:25;20.92;;;2.97;;
76640;SDS011;65538;50.798;6.064;2023-02-01T06:11:52;17.67;;;3.28;;
76640;SDS011;65538;50.798;6.064;2023-02-01T06:14:17;12.20;;;2.92;;
76640;SDS011;65538;50.798;6.064;2023-02-01T06:16:43;5.67;;;1.63;;
76640;SDS011;65538;50.798;6.064;2023-02-01T06:19:10;16.75;;;3.08;;
76640;SDS011;65538;50.798;6.064;2023-02-01T06:21:36;11.20;;;3.20;;
76640;SDS011;65538;50.798;6.064;2023-02-01T06:24:01;15.27;;;3.67;;
76640;SDS011;65538;50.798;6.064;2023-02-01T06:26:26;17.43;;;3.40;;
76640;SDS011;65538;50.798;6.064;2023-02-01T06:28:53;17.50;;;3.92;;
76640;SDS011;65538;50.798;6.064;2023-02-01T06:31:20;18.98;;;3.42;;
76640;SDS011;65538;50.798;6.064;2023-02-01T06:33:45;19.40;;;3.88;;
76640;SDS011;65538;50.798;6.064;2023-02-01T06:36:12;16.17;;;3.22;;
76640;SDS011;65538;50.798;6.064;2023-02-01T06:38:38;12.73;;;2.75;;
76640;SDS011;65538;50.798;6.064;2023-02-01T06:41:04;15.13;;;3.88;;
76640;SDS011;65538;50.798;6.064;2023-02-01T06:43:29;17.70;;;4.07;;
76640;SDS011;65538;50.798;6.064;2023-02-01T06:46:01;21.10;;;3.95;;
76640;SDS011;65538;50.798;6.064;2023-02-01T06:48:27;21.13;;;3.97;;
76640;SDS011;65538;50.798;6.064;2023-02-01T06:50:52;14.07;;;2.85;;
76640;SDS011;65538;50.798;6.064;2023-02-01T06:53:18;25.37;;;3.10;;
76640;SDS011;65538;50.798;6.064;2023-02-01T06:55:59;16.20;;;3.30;;
76640;SDS011;65538;50.798;6.064;2023-02-01T07:00:50;14.63;;;3.03;;
76640;SDS011;65538;50.798;6.064;2023-02-01T07:03:17;19.92;;;3.70;;
76640;SDS011;65538;50.798;6.064;2023-02-01T07:05:42;18.85;;;2.92;;
76640;SDS011;65538;50.798;6.064;2023-02-01T07:08:07;26.10;;;5.03;;
76640;SDS011;65538;50.798;6.064;2023-02-01T07:10:33;20.60;;;3.87;;
76640;SDS011;65538;50.798;6.064;2023-02-01T07:12:59;13.10;;;2.92;;
76640;SDS011;65538;50.798;6.064;2023-02-01T07:15:24;17.55;;;3.28;;
76640;SDS011;65538;50.798;6.064;2023-02-01T07:17:49;11.90;;;2.63;;
76640;SDS011;65538;50.798;6.064;2023-02-01T07:20:15;18.67;;;3.90;;
76640;SDS011;65538;50.798;6.064;2023-02-01T07:22:40;17.42;;;3.45;;
76640;SDS011;65538;50.798;6.064;2023-02-01T07:25:11;11.93;;;2.27;;
76640;SDS011;65538;50.798;6.064;2023-02-01T07:27:37;20.77;;;3.63;;
76640;SDS011;65538;50.798;6.064;2023-02-01T07:30:05;25.95;;;3.38;;
76640;SDS011;65538;50.798;6.064;2023-02-01T07:32:31;13.38;;;2.35;;
76640;SDS011;65538;50.798;6.064;2023-02-01T07:34:57;16.70;;;3.95;;
76640;SDS011;65538;50.798;6.064;2023-02-01T07:37:25;18.33;;;4.00;;
76640;SDS011;65538;50.798;6.064;2023-02-01T07:39:50;14.27;;;2.88;;
76640;SDS011;65538;50.798;6.064;2023-02-01T07:42:16;14.38;;;3.47;;
76640;SDS011;65538;50.798;6.064;2023-02-01T07:44:41;12.13;;;3.53;;
76640;SDS011;65538;50.798;6.064;2023-02-01T07:47:06;13.10;;;2.80;;
76640;SDS011;65538;50.798;6.064;2023-02-01T07:49:31;14.67;;;3.10;;
76640;SDS011;65538;50.798;6.064;2023-02-01T07:51:57;15.32;;;3.20;;
76640;SDS011;65538;50.798;6.064;2023-02-01T07:54:22;20.07;;;3.60;;
76640;SDS011;65538;50.798;6.064;2023-02-01T07:56:47;13.33;;;3.33;;
76640;SDS011;65538;50.798;6.064;2023-02-01T07:59:12;19.80;;;3.97;;
76640;SDS011;65538;50.798;6.064;2023-02-01T08:01:38;16.50;;;3.28;;
76640;SDS011;65538;50.798;6.064;2023-02-01T08:04:03;22.17;;;3.47;;
76640;SDS011;65538;50.798;6.064;2023-02-01T08:06:32;23.05;;;3.30;;
76640;SDS011;65538;50.798;6.064;2023-02-01T08:08:59;13.55;;;2.53;;
76640;SDS011;65538;50.798;6.064;2023-02-01T08:11:25;20.90;;;4.10;;
76640;SDS011;65538;50.798;6.064;2023-02-01T08:13:50;22.02;;;3.95;;
76640;SDS011;65538;50.798;6.064;2023-02-01T08:16:16;13.02;;;3.80;;
76640;SDS011;65538;50.798;6.064;2023-02-01T08:18:42;19.10;;;3.85;;
76640;SDS011;65538;50.798;6.064;2023-02-01T08:21:09;13.05;;;3.03;;
76640;SDS011;65538;50.798;6.064;2023-02-01T08:23:34;12.95;;;2.60;;
76640;SDS011;65538;50.798;6.064;2023-02-01T08:26:04;17.60;;;3.33;;
76640;SDS011;65538;50.798;6.064;2023-02-01T08:28:30;16.65;;;2.75;;
76640;SDS011;65538;50.798;6.064;2023-02-01T08:30:55;15.97;;;3.63;;
76640;SDS011;65538;50.798;6.064;2023-02-01T08:33:20;22.77;;;3.37;;
76640;SDS011;65538;50.798;6.064;2023-02-01T08:35:47;25.67;;;4.22;;
76640;SDS011;65538;50.798;6.064;2023-02-01T08:38:12;18.33;;;4.20;;
76640;SDS011;65538;50.798;6.064;2023-02-01T08:40:37;16.70;;;2.87;;
76640;SDS011;65538;50.798;6.064;2023-02-01T08:43:02;12.03;;;2.33;;
76640;SDS011;65538;50.798;6.064;2023-02-01T08:45:28;13.83;;;3.37;;
76640;SDS011;65538;50.798;6.064;2023-02-01T08:47:55;11.90;;;2.30;;
76640;SDS011;65538;50.798;6.064;2023-02-01T08:50:20;13.18;;;2.92;;
76640;SDS011;65538;50.798;6.064;2023-02-01T08:52:46;19.80;;;3.28;;
76640;SDS011;65538;50.798;6.064;2023-02-01T08:55:12;19.50;;;4.93;;
76640;SDS011;65538;50.798;6.064;2023-02-01T08:57:38;24.50;;;3.92;;
76640;SDS011;65538;50.798;6.064;2023-02-01T09:00:04;21.35;;;5.10;;
76640;SDS011;65538;50.798;6.064;2023-02-01T09:02:29;22.55;;;4.30;;
76640;SDS011;65538;50.798;6.064;2023-02-01T09:04:55;16.80;;;4.17;;
76640;SDS011;65538;50.798;6.064;2023-02-01T09:07:21;10.57;;;2.38;;
76640;SDS011;65538;50.798;6.064;2023-02-01T09:09:46;22.45;;;4.10;;
76640;SDS011;65538;50.798;6.064;2023-02-01T09:12:12;18.00;;;3.35;;
76640;SDS011;65538;50.798;6.064;2023-02-01T09:14:37;17.20;;;4.13;;
76640;SDS011;65538;50.798;6.064;2023-02-01T09:17:02;15.73;;;3.17;;
76640;SDS011;65538;50.798;6.064;2023-02-01T09:19:28;14.35;;;3.17;;
76640;SDS011;65538;50.798;6.064;2023-02-01T09:21:53;18.48;;;2.97;;
76640;SDS011;65538;50.798;6.064;2023-02-01T09:24:18;18.38;;;3.97;;
76640;SDS011;65538;50.798;6.064;2023-02-01T09:26:44;18.57;;;2.60;;
76640;SDS011;65538;50.798;6.064;2023-02-01T09:29:09;18.13;;;3.00;;
76640;SDS011;65538;50.798;6.064;2023-02-01T09:31:38;17.13;;;2.75;;
76640;SDS011;65538;50.798;6.064;2023-02-01T09:34:03;17.75;;;2.97;;
76640;SDS011;65538;50.798;6.064;2023-02-01T09:36:29;13.45;;;3.72;;
76640;SDS011;65538;50.798;6.064;2023-02-01T09:38:54;16.20;;;3.77;;
76640;SDS011;65538;50.798;6.064;2023-02-01T09:41:29;16.27;;;3.07;;
76640;SDS011;65538;50.798;6.064;2023-02-01T09:44:00;21.70;;;4.97;;
76640;SDS011;65538;50.798;6.064;2023-02-01T09:46:28;22.02;;;3.33;;
76640;SDS011;65538;50.798;6.064;2023-02-01T09:48:54;16.92;;;3.70;;
76640;SDS011;65538;50.798;6.064;2023-02-01T09:51:25;15.27;;;3.47;;
76640;SDS011;65538;50.798;6.064;2023-02-01T09:53:59;13.15;;;3.20;;
76640;SDS011;65538;50.798;6.064;2023-02-01T09:56:36;17.77;;;4.07;;
76640;SDS011;65538;50.798;6.064;2023-02-01T10:01:44;23.00;;;4.43;;
76640;SDS011;65538;50.798;6.064;2023-02-01T10:04:10;15.53;;;3.77;;
76640;SDS011;65538;50.798;6.064;2023-02-01T10:09:15;14.10;;;2.83;;
76640;SDS011;65538;50.798;6.064;2023-02-01T10:14:36;21.98;;;3.40;;
76640;SDS011;65538;50.798;6.064;2023-02-01T10:22:09;15.45;;;2.40;;
76640;SDS011;65538;50.798;6.064;2023-02-01T10:27:19;16.48;;;3.13;;
76640;SDS011;65538;50.798;6.064;2023-02-01T10:29:47;14.50;;;3.20;;
76640;SDS011;65538;50.798;6.064;2023-02-01T10:32:15;11.68;;;2.20;;
76640;SDS011;65538;50.798;6.064;2023-02-01T10:34:41;10.00;;;2.20;;
76640;SDS011;65538;50.798;6.064;2023-02-01T10:37:11;16.90;;;3.13;;
76640;SDS011;65538;50.798;6.064;2023-02-01T10:39:44;23.25;;;3.15;;
76640;SDS011;65538;50.798;6.064;2023-02-01T10:42:09;24.85;;;3.35;;
76640;SDS011;65538;50.798;6.064;2023-02-01T10:44:34;14.38;;;2.70;;
76640;SDS011;65538;50.798;6.064;2023-02-01T10:47:05;12.65;;;2.25;;
76640;SDS011;65538;50.798;6.064;2023-02-01T10:49:33;21.58;;;5.15;;
76640;SDS011;65538;50.798;6.064;2023-02-01T10:52:09;13.38;;;2.33;;
76640;SDS011;65538;50.798;6.064;2023-02-01T10:54:36;12.57;;;3.47;;
76640;SDS011;65538;50.798;6.064;2023-02-01T10:57:09;22.00;;;3.38;;
76640;SDS011;65538;50.798;6.064;2023-02-01T10:59:34;15.77;;;3.40;;
76640;SDS011;65538;50.798;6.064;2023-02-01T11:02:02;15.15;;;3.40;;
76640;SDS011;65538;50.798;6.064;2023-02-01T11:04:32;14.90;;;2.63;;
76640;SDS011;65538;50.798;6.064;2023-02-01T11:07:05;19.50;;;4.53;;
76640;SDS011;65538;50.798;6.064;2023-02-01T11:09:32;20.88;;;4.75;;
76640;SDS011;65538;50.798;6.064;2023-02-01T11:12:00;13.30;;;3.45;;
76640;SDS011;65538;50.798;6.064;2023-02-01T11:16:54;15.17;;;3.77;;
76640;SDS011;65538;50.798;6.064;2023-02-01T11:19:20;10.30;;;3.28;;
76640;SDS011;65538;50.798;6.064;2023-02-01T11:21:49;16.37;;;3.60;;
76640;SDS011;65538;50.798;6.064;2023-02-01T11:24:34;12.63;;;3.10;;
76640;SDS011;65538;50.798;6.064;2023-02-01T11:27:01;14.50;;;3.47;;
76640;SDS011;65538;50.798;6.064;2023-02-01T11:29:38;15.02;;;3.10;;
76640;SDS011;65538;50.798;6.064;2023-02-01T11:32:04;8.35;;;1.75;;
76640;SDS011;65538;50.798;6.064;2023-02-01T11:34:40;15.38;;;2.97;;
76640;SDS011;65538;50.798;6.064;2023-02-01T11:37:11;15.60;;;2.92;;
76640;SDS011;65538;50.798;6.064;2023-02-01T11:39:39;16.85;;;3.38;;
76640;SDS011;65538;50.798;6.064;2023-02-01T11:42:15;16.85;;;3.90;;
76640;SDS011;65538;50.798;6.064;2023-02-01T11:47:19;11.20;;;2.63;;
76640;SDS011;65538;50.798;6.064;2023-02-01T11:49:44;14.32;;;2.70;;
76640;SDS011;65538;50.798;6.064;2023-02-01T11:52:29;11.45;;;1.98;;
76640;SDS011;65538;50.798;6.064;2023-02-01T11:57:52;12.32;;;2.38;;
76640;SDS011;65538;50.798;6.064;2023-02-01T12:00:30;15.93;;;3.72;;
76640;SDS011;65538;50.798;6.064;2023-02-01T12:03:04;16.00;;;3.35;;
76640;SDS011;65538;50.798;6.064;2023-02-01T12:08:10;17.15;;;3.90;;
76640;SDS011;65538;50.798;6.064;2023-02-01T12:10:43;11.70;;;3.00;;
76640;SDS011;65538;50.798;6.064;2023-02-01T12:21:10;14.10;;;2.63;;
76640;SDS011;65538;50.798;6.064;2023-02-01T12:26:31;22.80;;;3.90;;
76640;SDS011;65538;50.798;6.064;2023-02-01T12:31:45;13.20;;;3.33;;
76640;SDS011;65538;50.798;6.064;2023-02-01T12:34:21;10.48;;;1.98;;
76640;SDS011;65538;50.798;6.064;2023-02-01T12:39:43;15.13;;;4.03;;
76640;SDS011;65538;50.798;6.064;2023-02-01T12:42:16;14.13;;;2.95;;
76640;SDS011;65538;50.798;6.064;2023-02-01T12:44:56;12.60;;;2.83;;
76640;SDS011;65538;50.798;6.064;2023-02-01T12:47:30;6.65;;;1.83;;
76640;SDS011;65538;50.798;6.064;2023-02-01T12:50:01;12.52;;;2.38;;
76640;SDS011;65538;50.798;6.064;2023-02-01T12:52:33;7.30;;;1.50;;
76640;SDS011;65538;50.798;6.064;2023-02-01T12:55:17;13.65;;;2.67;;
76640;SDS011;65538;50.798;6.064;2023-02-01T12:57:46;10.93;;;2.13;;
76640;SDS011;65538;50.798;6.064;2023-02-01T13:00:22;17.13;;;3.10;;
76640;SDS011;65538;50.798;6.064;2023-02-01T13:08:11;12.25;;;2.55;;
76640;SDS011;65538;50.798;6.064;2023-02-01T13:16:01;18.60;;;2.80;;
76640;SDS011;65538;50.798;6.064;2023-02-01T13:18:31;17.40;;;2.90;;
76640;SDS011;65538;50.798;6.064;2023-02-01T13:23:32;11.90;;;2.27;;
76640;SDS011;65538;50.798;6.064;2023-02-01T13:28:28;11.63;;;2.33;;
76640;SDS011;65538;50.798;6.064;2023-02-01T13:41:03;15.83;;;2.37;;
76640;SDS011;65538;50.798;6.064;2023-02-01T13:43:32;10.43;;;2.25;;
76640;SDS011;65538;50.798;6.064;2023-02-01T13:46:02;10.65;;;1.88;;
76640;SDS011;65538;50.798;6.064;2023-02-01T13:48:29;15.77;;;2.20;;
76640;SDS011;65538;50.798;6.064;2023-02-01T13:50:56;13.13;;;2.53;;
76640;SDS011;65538;50.798;6.064;2023-02-01T13:53:29;13.07;;;2.45;;
76640;SDS011;65538;50.798;6.064;2023-02-01T13:58:31;6.43;;;1.83;;
76640;SDS011;65538;50.798;6.064;2023-02-01T14:03:45;19.55;;;2.95;;
76640;SDS011;65538;50.798;6.064;2023-02-01T14:06:15;13.07;;;1.95;;
76640;SDS011;65538;50.798;6.064;2023-02-01T14:08:42;9.30;;;2.22;;
76640;SDS011;65538;50.798;6.064;2023-02-01T14:11:30;16.02;;;2.15;;
76640;SDS011;65538;50.798;6.064;2023-02-01T14:13:53;12.38;;;2.17;;
76640;SDS011;65538;50.798;6.064;2023-02-01T14:16:18;7.50;;;2.20;;
76640;SDS011;65538;50.798;6.064;2023-02-01T14:23:44;14.73;;;2.45;;
76640;SDS011;65538;50.798;6.064;2023-02-01T14:26:11;13.48;;;2.30;;
76640;SDS011;65538;50.798;6.064;2023-02-01T14:28:42;13.60;;;2.25;;
76640;SDS011;65538;50.798;6.064;2023-02-01T14:31:25;10.02;;;1.77;;
76640;SDS011;65538;50.798;6.064;2023-02-01T14:33:58;13.32;;;2.00;;
76640;SDS011;65538;50.798;6.064;2023-02-01T14:36:24;12.35;;;2.33;;
76640;SDS011;65538;50.798;6.064;2023-02-01T14:38:53;9.57;;;2.10;;
76640;SDS011;65538;50.798;6.064;2023-02-01T14:49:20;7.10;;;1.38;;
76640;SDS011;65538;50.798;6.064;2023-02-01T14:51:46;7.88;;;2.00;;
76640;SDS011;65538;50.798;6.064;2023-02-01T14:55:05;15.75;;;2.60;;
76640;SDS011;65538;50.798;6.064;2023-02-01T14:57:39;6.88;;;1.42;;
76640;SDS011;65538;50.798;6.064;2023-02-01T15:00:24;10.85;;;1.70;;
76640;SDS011;65538;50.798;6.064;2023-02-01T15:02:52;8.35;;;2.15;;
76640;SDS011;65538;50.798;6.064;2023-02-01T15:05:31;6.60;;;1.42;;
76640;SDS011;65538;50.798;6.064;2023-02-01T15:08:16;12.80;;;2.30;;
76640;SDS011;65538;50.798;6.064;2023-02-01T15:10:51;10.05;;;1.88;;
76640;SDS011;65538;50.798;6.064;2023-02-01T15:13:24;13.95;;;2.25;;
76640;SDS011;65538;50.798;6.064;2023-02-01T15:25:25;13.88;;;2.42;;
76640;SDS011;65538;50.798;6.064;2023-02-01T15:31:35;6.45;;;1.40;;
76640;SDS011;65538;50.798;6.064;2023-02-01T15:34:01;6.72;;;1.70;;
76640;SDS011;65538;50.798;6.064;2023-02-01T15:36:33;10.68;;;1.92;;
76640;SDS011;65538;50.798;6.064;2023-02-01T15:39:18;6.93;;;1.42;;
76640;SDS011;65538;50.798;6.064;2023-02-01T15:41:55;10.40;;;2.00;;
76640;SDS011;65538;50.798;6.064;2023-02-01T15:44:51;11.20;;;2.42;;
76640;SDS011;65538;50.798;6.064;2023-02-01T15:47:29;12.25;;;2.08;;
76640;SDS011;65538;50.798;6.064;2023-02-01T15:49:56;12.95;;;2.25;;
76640;SDS011;65538;50.798;6.064;2023-02-01T15:52:36;8.82;;;1.50;;
76640;SDS011;65538;50.798;6.064;2023-02-01T15:55:07;10.38;;;2.05;;
76640;SDS011;65538;50.798;6.064;2023-02-01T15:57:38;13.68;;;3.13;;
76640;SDS011;65538;50.798;6.064;2023-02-01T16:00:18;10.88;;;2.05;;
76640;SDS011;65538;50.798;6.064;2023-02-01T16:02:54;6.00;;;1.77;;
76640;SDS011;65538;50.798;6.064;2023-02-01T16:05:31;12.15;;;1.70;;
76640;SDS011;65538;50.798;6.064;2023-02-01T16:08:10;8.13;;;2.20;;
76640;SDS011;65538;50.798;6.064;2023-02-01T16:10:41;11.18;;;2.40;;
76640;SDS011;65538;50.798;6.064;2023-02-01T16:13:13;4.18;;;1.77;;
76640;SDS011;65538;50.798;6.064;2023-02-01T16:15:43;14.77;;;2.72;;
76640;SDS011;65538;50.798;6.064;2023-02-01T16:18:08;11.70;;;2.60;;
76640;SDS011;65538;50.798;6.064;2023-02-01T16:20:55;10.88;;;2.63;;
76640;SDS011;65538;50.798;6.064;2023-02-01T16:23:27;12.38;;;3.08;;
76640;SDS011;65538;50.798;6.064;2023-02-01T16:25:59;8.57;;;1.83;;
76640;SDS011;65538;50.798;6.064;2023-02-01T16:28:27;14.50;;;3.43;;
76640;SDS011;65538;50.798;6.064;2023-02-01T16:30:58;12.85;;;3.05;;
76640;SDS011;65538;50.798;6.064;2023-02-01T16:33:35;15.98;;;3.10;;
76640;SDS011;65538;50.798;6.064;2023-02-01T16:36:00;14.45;;;2.85;;
76640;SDS011;65538;50.798;6.064;2023-02-01T16:38:27;19.33;;;4.18;;
76640;SDS011;65538;50.798;6.064;2023-02-01T16:40:53;7.82;;;2.00;;
76640;SDS011;65538;50.798;6.064;2023-02-01T16:43:23;15.88;;;3.78;;
76640;SDS011;65538;50.798;6.064;2023-02-01T16:45:55;9.27;;;2.45;;
76640;SDS011;65538;50.798;6.064;2023-02-01T16:48:29;18.90;;;2.95;;
76640;SDS011;65538;50.798;6.064;2023-02-01T16:50:57;13.27;;;3.58;;